WetterOnline ( https://www.wetteronline.de )

Wetter aktuell Driedorf

Aktuelles Wetter: Bad Marienberg (555m)

6-stündlich | Neueste Meldungen
Ortszeit Temperatur Wetter
Do, 23.09. 2:00 11.3° C fast wolkenlos
Mi, 22.09. 20:00 12.7° C fast wolkenlos
Mi, 22.09. 14:00 15.9° C leicht bewölkt
Mi, 22.09. 8:00 9.0° C wolkig
Mi, 22.09. 2:00 9.4° C -
Di, 21.09. 20:00 10.9° C wolkig
Di, 21.09. 14:00 13.3° C wolkig
Di, 21.09. 8:00 7.1° C leicht bewölkt
Ortszeit Temperatur Wetter
Do, 23.09. 2:00 11.3° C fast wolkenlos
Do, 23.09. 1:50 11.3° C fast wolkenlos
Do, 23.09. 1:40 12.0° C leicht bewölkt
Do, 23.09. 1:30 11.8° C leicht bewölkt
Do, 23.09. 1:20 11.8° C leicht bewölkt
Do, 23.09. 1:10 12.2° C leicht bewölkt
Do, 23.09. 1:00 12.1° C wolkig
Do, 23.09. 0:30 11.5° C leicht bewölkt
Do, 23.09. 0:00 11.3° C fast wolkenlos
Mi, 22.09. 23:30 12.1° C wolkenlos
Mi, 22.09. 23:00 12.5° C fast wolkenlos
Ortszeit Relative Feuchte Sichtweite
Do, 23.09. 2:00 81% 30 km
Mi, 22.09. 20:00 80% 30 km
Mi, 22.09. 14:00 66% 21 km
Mi, 22.09. 8:00 79% 27 km
Mi, 22.09. 2:00 78% 45 km
Di, 21.09. 20:00 70% 50 km
Di, 21.09. 14:00 57% 60 km
Di, 21.09. 8:00 71% 50 km
Ortszeit Relative Feuchte Sichtweite
Do, 23.09. 2:00 81% 30 km
Do, 23.09. 1:50 81% -
Do, 23.09. 1:40 78% -
Do, 23.09. 1:30 80% 25 km
Do, 23.09. 1:20 80% -
Do, 23.09. 1:10 80% -
Do, 23.09. 1:00 82% 20 km
Do, 23.09. 0:30 84% 21 km
Do, 23.09. 0:00 84% 21 km
Mi, 22.09. 23:30 79% 26 km
Mi, 22.09. 23:00 79% 24 km
Ortszeit Niederschlagsmenge Niederschlagsart
Do, 23.09. 2:00 0.0 l/m2 in 6 Std. -
Mi, 22.09. 20:00 0.0 l/m2 in 12 Std. -
Mi, 22.09. 14:00 0.0 l/m2 in 6 Std. -
Mi, 22.09. 8:00 0.0 l/m2 in 12 Std. -
Mi, 22.09. 2:00 0.0 l/m2 in 6 Std. -
Di, 21.09. 20:00 0.0 l/m2 in 12 Std. -
Di, 21.09. 14:00 0.0 l/m2 in 6 Std. -
Di, 21.09. 8:00 0.0 l/m2 in 12 Std. -
Ortszeit Niederschlagsmenge Niederschlagsart
Do, 23.09. 2:00 0.0 l/m2 in 1 Std. -
Do, 23.09. 1:50 keine Meldung -
Do, 23.09. 1:40 keine Meldung -
Do, 23.09. 1:30 0.0 l/m2 in 1 Std. -
Do, 23.09. 1:20 keine Meldung -
Do, 23.09. 1:10 keine Meldung -
Do, 23.09. 1:00 0.0 l/m2 in 1 Std. -
Do, 23.09. 0:30 0.0 l/m2 in 1 Std. -
Do, 23.09. 0:00 0.0 l/m2 in 1 Std. -
Mi, 22.09. 23:30 0.0 l/m2 in 1 Std. -
Mi, 22.09. 23:00 0.0 l/m2 in 1 Std. -
Ortszeit Stärke Spitze Richtung
km/h Bft. km/h Grad Sektor
Do, 23.09. 2:00 4 1 11 200° S
Mi, 22.09. 20:00 4 1 14 300° NW
Mi, 22.09. 14:00 6 1 15 210° SW
Mi, 22.09. 8:00 6 1 15 10° N
Mi, 22.09. 2:00 7 2 14 360° N
Di, 21.09. 20:00 7 2 18 320° NW
Di, 21.09. 14:00 7 2 22 290° W
Di, 21.09. 8:00 11 2 22 30° NO
Ortszeit Stärke Spitze Richtung
km/h Bft. km/h Grad Sektor
Do, 23.09. 2:00 4 1 7 200° S
Do, 23.09. 1:50 4 1 - 200° S
Do, 23.09. 1:40 4 1 - 220° SW
Do, 23.09. 1:30 2 1 7 220° SW
Do, 23.09. 1:20 2 1 - 220° SW
Do, 23.09. 1:10 4 1 - 250° W
Do, 23.09. 1:00 2 1 6 210° SW
Do, 23.09. 0:30 2 1 4 160° S
Do, 23.09. 0:00 2 1 6 150° SO
Mi, 22.09. 23:30 2 1 6 190° S
Mi, 22.09. 23:00 4 1 7 310° NW
Ortszeit Untergrenze Bedeckung Gattung
total tief tief mittel hoch
Do, 23.09. 2:00 9000 m 1/8 0/8 - - -
Mi, 22.09. 20:00 10500 m 1/8 0/8 - - -
Mi, 22.09. 14:00 10500 m 3/8 0/8 - - -
Mi, 22.09. 8:00 9000 m 8/8 0/8 - - -
Mi, 22.09. 2:00 - - - - - -
Di, 21.09. 20:00 8400 m 8/8 0/8 - - -
Di, 21.09. 14:00 1110 m 7/8 7/8 - - -
Di, 21.09. 8:00 8400 m 3/8 0/8 - - -
Ortszeit Bedeckungsgrad in Achtel und Wolkenuntergrenze
Do, 23.09. 2:00 1(9000m)
Do, 23.09. 1:50 1(9000m)
Do, 23.09. 1:40 2(9000m) 3(10500m)
Do, 23.09. 1:30 4(10500m) 3(10500m)
Do, 23.09. 1:20 4(10500m)
Do, 23.09. 1:10 5(10500m)
Do, 23.09. 1:00 7(10500m) 7(10500m)
Do, 23.09. 0:30 1(9000m) 6(12000m)
Do, 23.09. 0:00 1(9000m) 5(12000m)
Mi, 22.09. 23:30 keine Wolken
Mi, 22.09. 23:00 1(10500m)
Ortszeit Luftdruck NN (hPa) Tendenz (hPa in 3 Std.)
Do, 23.09. 2:00 1025 - 1,0
Mi, 22.09. 20:00 1026 - 0,6
Mi, 22.09. 14:00 1028 - 1,3
Mi, 22.09. 8:00 1030 + 0,2
Mi, 22.09. 2:00 1031 - 0,5
Di, 21.09. 20:00 1030 + 0,5
Di, 21.09. 14:00 1030 + 0,5
Di, 21.09. 8:00 1029 + 2,2
Ortszeit Luftdruck NN (hPa) Tendenz (hPa in 3 Std.)
Do, 23.09. 2:00 1025 - 1,0
Do, 23.09. 1:50 1025 keine Meldung
Do, 23.09. 1:40 1025 keine Meldung
Do, 23.09. 1:30 1025 - 0,6
Do, 23.09. 1:20 1025 keine Meldung
Do, 23.09. 1:10 1025 keine Meldung
Do, 23.09. 1:00 1026 - 0,5
Do, 23.09. 0:30 1026 - 0,8
Do, 23.09. 0:00 1026 - 0,7
Mi, 22.09. 23:30 1026 - 0,8
Mi, 22.09. 23:00 1026 - 0,6
Ortszeit Schneehöhe (cm)
Do, 23.09. 2:00 -
Mi, 22.09. 20:00 -
Mi, 22.09. 14:00 -
Mi, 22.09. 8:00 -
Mi, 22.09. 2:00 -
Di, 21.09. 20:00 -
Di, 21.09. 14:00 -
Di, 21.09. 8:00 -
Ortszeit Schneehöhe (cm)
Do, 23.09. 2:00 -
Do, 23.09. 1:50 -
Do, 23.09. 1:40 -
Do, 23.09. 1:30 -
Do, 23.09. 1:20 -
Do, 23.09. 1:10 -
Do, 23.09. 1:00 -
Do, 23.09. 0:30 -
Do, 23.09. 0:00 -
Mi, 22.09. 23:30 -
Mi, 22.09. 23:00 -
Link zu dieser Seite / Seite empfehlen

Das Wetter in ...